CheckWX is a tool to help pilots better visualize weather data.  It is not intended as a substitute for an official pre-flight weather briefing.

21:07:53 UTC

KHZE METAR
Mercer County Regional Airport
Hazen, North Dakota, USA
Current

13 mins ago

KHZE 182055Z AUTO 23004KT 9SM CLR M15/M18 A3046 RMK AO2 TSNO
Observed
Feb-18 @ 20:55 UTC
Wind
  • 230° at 4 KTS
Visibility
9 SM
Flight Rules
VFR
Cloud Levels
  • Clear skies
Temperature
-15°C / 5°F
Dewpoint
-18°C / -0°F
Humidity
78%
Altimeter
30.46" Hg
Pressure
1031.51 hPa
Previous

33 mins ago

KHZE 182035Z AUTO 23005KT 10SM SCT020 SCT024 M15/M18 A3046 RMK AO2 TSNO
Observed
Feb-18 @ 20:35 UTC
Wind
  • 230° at 5 KTS
Visibility
10 SM
Flight Rules
VFR
Cloud Levels
  • Scattered at 2,000' AGL
  • Scattered at 2,400' AGL
Temperature
-15°C / 5°F
Dewpoint
-18°C / -0°F
Humidity
78%
Altimeter
30.46" Hg
Pressure
1031.51 hPa
Previous

53 mins ago

KHZE 182015Z AUTO 23005KT 10SM FEW020 M15/M18 A3046 RMK AO2 TSNO
Observed
Feb-18 @ 20:15 UTC
Wind
  • 230° at 5 KTS
Visibility
10 SM
Flight Rules
VFR
Cloud Levels
  • Few at 2,000' AGL
Temperature
-15°C / 5°F
Dewpoint
-18°C / -0°F
Humidity
78%
Altimeter
30.46" Hg
Pressure
1031.51 hPa